sensor_id;sensor_type;location;lat;lon;timestamp;pressure;altitude;pressure_sealevel;temperature;humidity
43621;BME280;29213;50.770;7.298;2023-03-01T00:01:21;102037.56;;;-3.45;50.87
43621;BME280;29213;50.770;7.298;2023-03-01T00:03:47;102101.81;;;-3.08;50.81
43621;BME280;29213;50.770;7.298;2023-03-01T00:06:12;102181.63;;;-2.66;50.89
43621;BME280;29213;50.770;7.298;2023-03-01T00:08:38;102183.53;;;-2.71;50.56
43621;BME280;29213;50.770;7.298;2023-03-01T00:13:43;102138.22;;;-3.03;51.09
43621;BME280;29213;50.770;7.298;2023-03-01T00:16:12;102177.59;;;-2.78;51.11
43621;BME280;29213;50.770;7.298;2023-03-01T00:18:38;101999.63;;;-3.95;51.19
43621;BME280;29213;50.770;7.298;2023-03-01T00:21:04;102186.38;;;-2.82;50.87
43621;BME280;29213;50.770;7.298;2023-03-01T00:23:31;102185.56;;;-2.84;51.00
43621;BME280;29213;50.770;7.298;2023-03-01T00:25:57;102151.44;;;-3.13;51.09
43621;BME280;29213;50.770;7.298;2023-03-01T00:28:22;102097.53;;;-3.49;51.28
43621;BME280;29213;50.770;7.298;2023-03-01T00:30:47;102156.75;;;-3.16;51.16
43621;BME280;29213;50.770;7.298;2023-03-01T00:33:13;102146.50;;;-3.24;51.38
43621;BME280;29213;50.770;7.298;2023-03-01T00:35:38;102209.22;;;-2.92;51.30
43621;BME280;29213;50.770;7.298;2023-03-01T00:38:04;102202.31;;;-2.95;51.38
43621;BME280;29213;50.770;7.298;2023-03-01T00:40:33;102195.41;;;-2.97;51.33
43621;BME280;29213;50.770;7.298;2023-03-01T00:42:59;102099.59;;;-3.63;51.30
43621;BME280;29213;50.770;7.298;2023-03-01T00:45:25;102199.84;;;-3.01;51.02
43621;BME280;29213;50.770;7.298;2023-03-01T00:47:51;102202.53;;;-3.04;51.19
43621;BME280;29213;50.770;7.298;2023-03-01T00:50:17;102180.28;;;-3.19;51.00
43621;BME280;29213;50.770;7.298;2023-03-01T00:52:43;101979.81;;;-4.44;51.10
43621;BME280;29213;50.770;7.298;2023-03-01T00:55:09;102049.13;;;-3.98;51.42
43621;BME280;29213;50.770;7.298;2023-03-01T00:57:34;102071.44;;;-3.85;51.23
43621;BME280;29213;50.770;7.298;2023-03-01T01:00:00;102154.78;;;-3.44;51.60
43621;BME280;29213;50.770;7.298;2023-03-01T01:02:25;102166.81;;;-3.40;51.77
43621;BME280;29213;50.770;7.298;2023-03-01T01:04:51;102139.31;;;-3.52;51.77
43621;BME280;29213;50.770;7.298;2023-03-01T01:07:17;102185.66;;;-3.27;52.10
43621;BME280;29213;50.770;7.298;2023-03-01T01:09:43;102065.66;;;-4.01;51.97
43621;BME280;29213;50.770;7.298;2023-03-01T01:12:08;102180.53;;;-3.30;52.24
43621;BME280;29213;50.770;7.298;2023-03-01T01:14:34;102180.53;;;-3.31;52.16
43621;BME280;29213;50.770;7.298;2023-03-01T01:16:59;102111.13;;;-3.74;52.21
43621;BME280;29213;50.770;7.298;2023-03-01T01:19:26;102180.63;;;-3.36;51.64
43621;BME280;29213;50.770;7.298;2023-03-01T01:21:51;102054.56;;;-4.09;51.93
43621;BME280;29213;50.770;7.298;2023-03-01T01:24:18;102165.06;;;-3.38;51.55
43621;BME280;29213;50.770;7.298;2023-03-01T01:26:43;102158.28;;;-3.47;51.06
43621;BME280;29213;50.770;7.298;2023-03-01T01:29:09;102119.72;;;-3.70;51.55
43621;BME280;29213;50.770;7.298;2023-03-01T01:31:38;102160.78;;;-3.42;51.95
43621;BME280;29213;50.770;7.298;2023-03-01T01:34:06;101980.72;;;-4.45;51.88
43621;BME280;29213;50.770;7.298;2023-03-01T01:36:32;102099.03;;;-3.78;51.93
43621;BME280;29213;50.770;7.298;2023-03-01T01:38:58;102100.84;;;-3.81;52.25
43621;BME280;29213;50.770;7.298;2023-03-01T01:41:24;102082.94;;;-3.97;51.77
43621;BME280;29213;50.770;7.298;2023-03-01T01:44:17;102147.19;;;-3.56;51.44
43621;BME280;29213;50.770;7.298;2023-03-01T01:46:56;102142.88;;;-3.57;51.78
43621;BME280;29213;50.770;7.298;2023-03-01T01:49:32;102143.78;;;-3.58;51.84
43621;BME280;29213;50.770;7.298;2023-03-01T01:52:13;102123.22;;;-3.72;51.75
43621;BME280;29213;50.770;7.298;2023-03-01T01:54:51;102143.03;;;-3.65;51.83
43621;BME280;29213;50.770;7.298;2023-03-01T01:57:25;102143.03;;;-3.65;51.45
43621;BME280;29213;50.770;7.298;2023-03-01T01:59:54;102087.38;;;-4.02;51.69
43621;BME280;29213;50.770;7.298;2023-03-01T02:02:22;102105.41;;;-3.91;51.36
43621;BME280;29213;50.770;7.298;2023-03-01T02:04:52;102016.13;;;-4.39;51.91
43621;BME280;29213;50.770;7.298;2023-03-01T02:07:21;102138.75;;;-3.68;51.88
43621;BME280;29213;50.770;7.298;2023-03-01T02:09:49;102140.56;;;-3.71;52.32
43621;BME280;29213;50.770;7.298;2023-03-01T02:12:21;102131.22;;;-3.82;52.08
43621;BME280;29213;50.770;7.298;2023-03-01T02:14:48;102122.66;;;-3.87;51.83
43621;BME280;29213;50.770;7.298;2023-03-01T02:17:15;102023.31;;;-4.50;51.86
43621;BME280;29213;50.770;7.298;2023-03-01T02:22:37;102007.09;;;-4.65;52.21
43621;BME280;29213;50.770;7.298;2023-03-01T02:25:19;102134.91;;;-3.92;52.31
43621;BME280;29213;50.770;7.298;2023-03-01T02:30:42;102086.84;;;-4.17;51.74
43621;BME280;29213;50.770;7.298;2023-03-01T02:33:30;102038.81;;;-4.46;52.09
43621;BME280;29213;50.770;7.298;2023-03-01T02:36:00;102045.53;;;-4.34;52.22
43621;BME280;29213;50.770;7.298;2023-03-01T02:38:27;102069.59;;;-4.22;52.15
43621;BME280;29213;50.770;7.298;2023-03-01T02:40:54;102023.41;;;-4.57;52.11
43621;BME280;29213;50.770;7.298;2023-03-01T02:43:22;101980.72;;;-4.90;52.16
43621;BME280;29213;50.770;7.298;2023-03-01T02:45:50;102037.19;;;-4.50;51.92
43621;BME280;29213;50.770;7.298;2023-03-01T02:48:16;101984.06;;;-4.84;52.05
43621;BME280;29213;50.770;7.298;2023-03-01T02:51:07;102112.59;;;-4.04;52.52
43621;BME280;29213;50.770;7.298;2023-03-01T02:53:48;102111.72;;;-4.03;52.74
43621;BME280;29213;50.770;7.298;2023-03-01T02:56:18;102087.66;;;-4.16;52.45
43621;BME280;29213;50.770;7.298;2023-03-01T02:58:44;102110.84;;;-4.04;52.40
43621;BME280;29213;50.770;7.298;2023-03-01T03:01:14;101888.03;;;-5.37;52.26
43621;BME280;29213;50.770;7.298;2023-03-01T03:03:41;102099.63;;;-4.06;52.73
43621;BME280;29213;50.770;7.298;2023-03-01T03:06:07;102008.84;;;-4.65;52.23
43621;BME280;29213;50.770;7.298;2023-03-01T03:08:33;102032.03;;;-4.55;52.35
43621;BME280;29213;50.770;7.298;2023-03-01T03:10:58;102011.53;;;-4.70;51.96
43621;BME280;29213;50.770;7.298;2023-03-01T03:13:24;102096.53;;;-4.27;52.73
43621;BME280;29213;50.770;7.298;2023-03-01T03:15:57;101979.13;;;-4.99;52.76
43621;BME280;29213;50.770;7.298;2023-03-01T03:18:24;102094.84;;;-4.29;52.46
43621;BME280;29213;50.770;7.298;2023-03-01T03:20:53;102028.00;;;-4.70;52.26
43621;BME280;29213;50.770;7.298;2023-03-01T03:23:20;102034.00;;;-4.66;52.09
43621;BME280;29213;50.770;7.298;2023-03-01T03:25:50;102031.38;;;-4.64;52.30
43621;BME280;29213;50.770;7.298;2023-03-01T03:28:16;102070.75;;;-4.37;52.39
43621;BME280;29213;50.770;7.298;2023-03-01T03:30:42;102027.94;;;-4.66;52.00
43621;BME280;29213;50.770;7.298;2023-03-01T03:33:09;102021.97;;;-4.72;52.03
43621;BME280;29213;50.770;7.298;2023-03-01T03:35:42;102072.56;;;-4.43;52.52
43621;BME280;29213;50.770;7.298;2023-03-01T03:38:10;102077.63;;;-4.35;52.23
43621;BME280;29213;50.770;7.298;2023-03-01T03:40:48;102072.47;;;-4.38;52.56
43621;BME280;29213;50.770;7.298;2023-03-01T03:43:17;101985.97;;;-4.93;52.46
43621;BME280;29213;50.770;7.298;2023-03-01T03:45:45;102080.34;;;-4.41;52.38
43621;BME280;29213;50.770;7.298;2023-03-01T03:48:10;102075.19;;;-4.43;52.36
43621;BME280;29213;50.770;7.298;2023-03-01T03:50:37;102082.03;;;-4.38;52.17
43621;BME280;29213;50.770;7.298;2023-03-01T03:53:05;102078.66;;;-4.44;52.57
43621;BME280;29213;50.770;7.298;2023-03-01T03:55:32;102036.72;;;-4.74;52.42
43621;BME280;29213;50.770;7.298;2023-03-01T03:57:59;102075.28;;;-4.47;52.67
43621;BME280;29213;50.770;7.298;2023-03-01T04:00:28;101998.09;;;-4.94;52.42
43621;BME280;29213;50.770;7.298;2023-03-01T04:02:53;102057.16;;;-4.54;52.50
43621;BME280;29213;50.770;7.298;2023-03-01T04:05:22;102061.56;;;-4.57;52.70
43621;BME280;29213;50.770;7.298;2023-03-01T04:07:47;101961.28;;;-5.16;52.75
43621;BME280;29213;50.770;7.298;2023-03-01T04:10:17;101951.84;;;-5.24;53.14
43621;BME280;29213;50.770;7.298;2023-03-01T04:12:43;101992.25;;;-5.05;52.76
43621;BME280;29213;50.770;7.298;2023-03-01T04:15:11;101971.81;;;-5.26;52.98
43621;BME280;29213;50.770;7.298;2023-03-01T04:20:05;101970.03;;;-5.24;53.08
43621;BME280;29213;50.770;7.298;2023-03-01T04:22:32;101840.69;;;-6.04;53.34
43621;BME280;29213;50.770;7.298;2023-03-01T04:24:58;102042.16;;;-4.86;53.02
43621;BME280;29213;50.770;7.298;2023-03-01T04:27:27;101989.09;;;-5.25;52.76
43621;BME280;29213;50.770;7.298;2023-03-01T04:29:52;101929.28;;;-5.70;52.94
43621;BME280;29213;50.770;7.298;2023-03-01T04:32:17;102022.00;;;-5.24;53.34
43621;BME280;29213;50.770;7.298;2023-03-01T04:34:43;101969.78;;;-5.62;53.27
43621;BME280;29213;50.770;7.298;2023-03-01T04:37:09;102040.91;;;-5.14;53.62
43621;BME280;29213;50.770;7.298;2023-03-01T04:39:34;101944.81;;;-5.67;53.52
43621;BME280;29213;50.770;7.298;2023-03-01T04:42:14;101983.44;;;-5.47;53.47
43621;BME280;29213;50.770;7.298;2023-03-01T04:44:40;102008.97;;;-5.22;53.26
43621;BME280;29213;50.770;7.298;2023-03-01T04:47:05;102045.78;;;-4.97;53.21
43621;BME280;29213;50.770;7.298;2023-03-01T04:49:31;101898.34;;;-5.83;53.60
43621;BME280;29213;50.770;7.298;2023-03-01T04:51:57;101926.50;;;-5.59;53.12
43621;BME280;29213;50.770;7.298;2023-03-01T04:54:28;102045.66;;;-4.89;53.36
43621;BME280;29213;50.770;7.298;2023-03-01T04:56:54;102048.25;;;-4.87;53.68
43621;BME280;29213;50.770;7.298;2023-03-01T04:59:19;101950.38;;;-5.39;53.15
43621;BME280;29213;50.770;7.298;2023-03-01T05:01:48;102001.84;;;-5.11;52.89
43621;BME280;29213;50.770;7.298;2023-03-01T05:04:14;101986.44;;;-5.20;53.25
43621;BME280;29213;50.770;7.298;2023-03-01T05:06:39;101954.91;;;-5.52;53.13
43621;BME280;29213;50.770;7.298;2023-03-01T05:09:05;101995.34;;;-5.35;53.23
43621;BME280;29213;50.770;7.298;2023-03-01T05:11:31;102027.13;;;-5.17;53.55
43621;BME280;29213;50.770;7.298;2023-03-01T05:14:01;101973.84;;;-5.43;53.45
43621;BME280;29213;50.770;7.298;2023-03-01T05:16:27;102015.84;;;-5.18;53.48
43621;BME280;29213;50.770;7.298;2023-03-01T05:18:52;101925.81;;;-5.71;53.27
43621;BME280;29213;50.770;7.298;2023-03-01T05:21:17;101970.34;;;-5.42;53.51
43621;BME280;29213;50.770;7.298;2023-03-01T05:23:43;101998.69;;;-5.28;53.49
43621;BME280;29213;50.770;7.298;2023-03-01T05:26:09;101965.31;;;-5.52;53.48
43621;BME280;29213;50.770;7.298;2023-03-01T05:28:35;102036.38;;;-5.02;53.53
43621;BME280;29213;50.770;7.298;2023-03-01T05:31:01;102041.56;;;-5.02;53.35
43621;BME280;29213;50.770;7.298;2023-03-01T05:33:27;101958.47;;;-5.56;53.34
43621;BME280;29213;50.770;7.298;2023-03-01T05:35:53;102008.28;;;-5.32;53.50
43621;BME280;29213;50.770;7.298;2023-03-01T05:38:19;101876.34;;;-6.15;53.28
43621;BME280;29213;50.770;7.298;2023-03-01T05:40:47;102004.13;;;-5.42;53.55
43621;BME280;29213;50.770;7.298;2023-03-01T05:43:15;102052.16;;;-5.15;53.66
43621;BME280;29213;50.770;7.298;2023-03-01T05:45:41;102059.13;;;-5.17;53.50
43621;BME280;29213;50.770;7.298;2023-03-01T05:48:07;102058.22;;;-5.16;53.62
43621;BME280;29213;50.770;7.298;2023-03-01T05:50:36;102056.53;;;-5.18;53.58
43621;BME280;29213;50.770;7.298;2023-03-01T05:53:05;102051.41;;;-5.22;54.06
43621;BME280;29213;50.770;7.298;2023-03-01T05:55:32;101986.25;;;-5.61;53.85
43621;BME280;29213;50.770;7.298;2023-03-01T05:57:59;102056.63;;;-5.22;54.14
43621;BME280;29213;50.770;7.298;2023-03-01T06:00:26;102041.06;;;-5.25;53.60
43621;BME280;29213;50.770;7.298;2023-03-01T06:02:53;102035.97;;;-5.31;54.05
43621;BME280;29213;50.770;7.298;2023-03-01T06:05:19;101966.41;;;-5.67;53.56
43621;BME280;29213;50.770;7.298;2023-03-01T06:07:44;101987.88;;;-5.55;53.55
43621;BME280;29213;50.770;7.298;2023-03-01T06:10:11;102043.81;;;-5.34;53.86
43621;BME280;29213;50.770;7.298;2023-03-01T06:12:40;101974.19;;;-5.65;53.65
43621;BME280;29213;50.770;7.298;2023-03-01T06:15:07;102035.19;;;-5.38;53.68
43621;BME280;29213;50.770;7.298;2023-03-01T06:17:36;102028.38;;;-5.42;53.35
43621;BME280;29213;50.770;7.298;2023-03-01T06:20:29;102020.59;;;-5.43;53.62
43621;BME280;29213;50.770;7.298;2023-03-01T06:22:54;101898.88;;;-6.20;53.48
43621;BME280;29213;50.770;7.298;2023-03-01T06:25:22;102026.66;;;-5.44;53.91
43621;BME280;29213;50.770;7.298;2023-03-01T06:27:47;102030.09;;;-5.44;54.06
43621;BME280;29213;50.770;7.298;2023-03-01T06:30:15;101981.19;;;-5.70;53.79
43621;BME280;29213;50.770;7.298;2023-03-01T06:32:41;102026.69;;;-5.48;53.54
43621;BME280;29213;50.770;7.298;2023-03-01T06:35:09;101981.28;;;-5.77;53.38
43621;BME280;29213;50.770;7.298;2023-03-01T06:37:35;102028.50;;;-5.53;53.66
43621;BME280;29213;50.770;7.298;2023-03-01T06:40:02;101931.63;;;-6.13;53.82
43621;BME280;29213;50.770;7.298;2023-03-01T06:42:34;101858.75;;;-6.54;53.75
43621;BME280;29213;50.770;7.298;2023-03-01T06:45:00;101974.56;;;-5.90;53.46
43621;BME280;29213;50.770;7.298;2023-03-01T06:47:25;101960.97;;;-6.08;53.78
43621;BME280;29213;50.770;7.298;2023-03-01T06:49:50;101978.00;;;-5.88;53.84
43621;BME280;29213;50.770;7.298;2023-03-01T06:52:16;102000.31;;;-5.76;54.01
43621;BME280;29213;50.770;7.298;2023-03-01T06:54:41;101998.53;;;-5.72;53.52
43621;BME280;29213;50.770;7.298;2023-03-01T06:57:06;102000.16;;;-5.67;53.68
43621;BME280;29213;50.770;7.298;2023-03-01T06:59:32;102000.13;;;-5.62;53.79
43621;BME280;29213;50.770;7.298;2023-03-01T07:01:57;102018.09;;;-5.51;54.11
43621;BME280;29213;50.770;7.298;2023-03-01T07:04:22;102002.63;;;-5.57;54.18
43621;BME280;29213;50.770;7.298;2023-03-01T07:06:48;102024.69;;;-5.30;54.19
43621;BME280;29213;50.770;7.298;2023-03-01T07:09:24;102028.94;;;-5.23;54.27
43621;BME280;29213;50.770;7.298;2023-03-01T07:11:49;101974.88;;;-5.54;53.87
43621;BME280;29213;50.770;7.298;2023-03-01T07:14:15;101895.09;;;-5.97;53.61
43621;BME280;29213;50.770;7.298;2023-03-01T07:16:41;102002.19;;;-5.31;53.21
43621;BME280;29213;50.770;7.298;2023-03-01T07:19:06;102030.41;;;-5.08;53.58
43621;BME280;29213;50.770;7.298;2023-03-01T07:21:31;101844.34;;;-6.16;53.89
43621;BME280;29213;50.770;7.298;2023-03-01T07:23:57;102018.97;;;-4.97;53.54
43621;BME280;29213;50.770;7.298;2023-03-01T07:26:22;102026.66;;;-4.91;53.97
43621;BME280;29213;50.770;7.298;2023-03-01T07:28:48;102031.75;;;-4.86;53.52
43621;BME280;29213;50.770;7.298;2023-03-01T07:31:14;102027.31;;;-4.79;53.86
43621;BME280;29213;50.770;7.298;2023-03-01T07:33:39;101932.97;;;-5.32;53.63
43621;BME280;29213;50.770;7.298;2023-03-01T07:36:05;101958.41;;;-5.01;54.01
43621;BME280;29213;50.770;7.298;2023-03-01T07:38:31;102019.75;;;-4.45;54.12
43621;BME280;29213;50.770;7.298;2023-03-01T07:41:01;101938.03;;;-4.78;53.51
43621;BME280;29213;50.770;7.298;2023-03-01T07:43:28;102014.84;;;-4.18;53.34
43621;BME280;29213;50.770;7.298;2023-03-01T07:45:53;101909.91;;;-4.59;53.38
43621;BME280;29213;50.770;7.298;2023-03-01T07:48:19;101941.97;;;-4.18;57.84
43621;BME280;29213;50.770;7.298;2023-03-01T07:50:44;101972.97;;;-3.32;58.82
43621;BME280;29213;50.770;7.298;2023-03-01T07:53:10;101920.75;;;-3.63;55.00
43621;BME280;29213;50.770;7.298;2023-03-01T07:55:36;101998.47;;;-3.11;53.82
43621;BME280;29213;50.770;7.298;2023-03-01T07:58:02;101907.50;;;-3.53;53.10
43621;BME280;29213;50.770;7.298;2023-03-01T08:00:27;101913.84;;;-3.30;53.56
43621;BME280;29213;50.770;7.298;2023-03-01T08:02:53;101990.59;;;-2.74;53.51
43621;BME280;29213;50.770;7.298;2023-03-01T08:05:18;101988.69;;;-2.69;52.70
43621;BME280;29213;50.770;7.298;2023-03-01T08:07:43;101976.81;;;-2.80;52.51
43621;BME280;29213;50.770;7.298;2023-03-01T08:10:09;101773.28;;;-4.00;52.74
43621;BME280;29213;50.770;7.298;2023-03-01T08:12:35;101934.31;;;-2.83;52.59
43621;BME280;29213;50.770;7.298;2023-03-01T08:15:00;101996.69;;;-2.14;57.33
43621;BME280;29213;50.770;7.298;2023-03-01T08:17:26;101918.44;;;-2.45;53.12
43621;BME280;29213;50.770;7.298;2023-03-01T08:19:51;101872.63;;;-2.54;52.34
43621;BME280;29213;50.770;7.298;2023-03-01T08:22:16;101954.28;;;-1.93;51.87
43621;BME280;29213;50.770;7.298;2023-03-01T08:24:42;101889.81;;;-2.18;51.14
43621;BME280;29213;50.770;7.298;2023-03-01T08:27:07;101927.81;;;-1.81;50.99
43621;BME280;29213;50.770;7.298;2023-03-01T08:29:34;101994.13;;;-1.31;50.78
43621;BME280;29213;50.770;7.298;2023-03-01T08:31:59;101985.91;;;-1.20;50.15
43621;BME280;29213;50.770;7.298;2023-03-01T08:34:25;101960.81;;;-1.26;50.27
43621;BME280;29213;50.770;7.298;2023-03-01T08:36:51;101990.97;;;-0.90;50.15
43621;BME280;29213;50.770;7.298;2023-03-01T08:39:18;101989.81;;;-0.81;49.86
43621;BME280;29213;50.770;7.298;2023-03-01T08:41:45;101993.00;;;-0.73;49.56
43621;BME280;29213;50.770;7.298;2023-03-01T08:44:12;101884.44;;;-1.34;49.47
43621;BME280;29213;50.770;7.298;2023-03-01T08:46:39;101993.94;;;-0.50;49.44
43621;BME280;29213;50.770;7.298;2023-03-01T08:49:16;101989.84;;;-0.33;49.41
43621;BME280;29213;50.770;7.298;2023-03-01T08:51:44;101936.34;;;-0.50;48.60
43621;BME280;29213;50.770;7.298;2023-03-01T08:54:15;101918.59;;;-0.42;48.28
43621;BME280;29213;50.770;7.298;2023-03-01T08:56:43;101921.53;;;-0.27;48.37
43621;BME280;29213;50.770;7.298;2023-03-01T08:59:10;101948.22;;;0.05;48.24
43621;BME280;29213;50.770;7.298;2023-03-01T09:01:36;101985.72;;;0.50;49.49
43621;BME280;29213;50.770;7.298;2023-03-01T09:04:02;101932.66;;;0.45;51.55
43621;BME280;29213;50.770;7.298;2023-03-01T09:06:30;101873.34;;;0.43;51.42
43621;BME280;29213;50.770;7.298;2023-03-01T09:08:58;101977.34;;;1.25;48.01
43621;BME280;29213;50.770;7.298;2023-03-01T09:11:23;101909.47;;;0.97;47.08
43621;BME280;29213;50.770;7.298;2023-03-01T09:13:49;101958.13;;;1.44;46.55
43621;BME280;29213;50.770;7.298;2023-03-01T09:16:17;101972.41;;;1.57;46.20
43621;BME280;29213;50.770;7.298;2023-03-01T09:18:43;101959.97;;;1.61;45.85
43621;BME280;29213;50.770;7.298;2023-03-01T09:21:12;101963.91;;;1.71;45.72
43621;BME280;29213;50.770;7.298;2023-03-01T09:23:41;101955.50;;;1.82;45.35
43621;BME280;29213;50.770;7.298;2023-03-01T09:26:09;101904.91;;;1.59;45.25
43621;BME280;29213;50.770;7.298;2023-03-01T09:28:37;101893.13;;;1.49;43.79
43621;BME280;29213;50.770;7.298;2023-03-01T09:31:06;101953.78;;;2.00;44.46
43621;BME280;29213;50.770;7.298;2023-03-01T09:33:32;101950.56;;;2.13;43.21
43621;BME280;29213;50.770;7.298;2023-03-01T09:35:59;101923.31;;;1.96;43.17
43621;BME280;29213;50.770;7.298;2023-03-01T09:38:25;101934.03;;;2.11;43.53
43621;BME280;29213;50.770;7.298;2023-03-01T09:40:51;101861.53;;;1.70;42.82
43621;BME280;29213;50.770;7.298;2023-03-01T09:45:59;101830.81;;;1.53;41.95
43621;BME280;29213;50.770;7.298;2023-03-01T09:48:26;101922.28;;;2.18;42.49
43621;BME280;29213;50.770;7.298;2023-03-01T09:50:52;101918.13;;;2.32;41.78
43621;BME280;29213;50.770;7.298;2023-03-01T09:53:23;101900.19;;;2.22;41.93
43621;BME280;29213;50.770;7.298;2023-03-01T09:55:59;101850.34;;;1.84;42.28
43621;BME280;29213;50.770;7.298;2023-03-01T10:06:46;101891.13;;;2.28;41.80
43621;BME280;29213;50.770;7.298;2023-03-01T10:09:17;101883.41;;;2.43;41.93
43621;BME280;29213;50.770;7.298;2023-03-01T10:11:50;101805.44;;;1.88;39.96
43621;BME280;29213;50.770;7.298;2023-03-01T10:19:32;101829.00;;;2.43;40.63
43621;BME280;29213;50.770;7.298;2023-03-01T10:22:15;101886.38;;;2.70;39.46
43621;BME280;29213;50.770;7.298;2023-03-01T10:24:42;101761.56;;;2.08;40.40
43621;BME280;29213;50.770;7.298;2023-03-01T10:27:14;101858.31;;;2.71;39.04
43621;BME280;29213;50.770;7.298;2023-03-01T10:32:13;101878.38;;;3.05;39.79
43621;BME280;29213;50.770;7.298;2023-03-01T10:34:39;101852.06;;;2.89;39.21
43621;BME280;29213;50.770;7.298;2023-03-01T10:37:16;101865.75;;;3.12;39.42
43621;BME280;29213;50.770;7.298;2023-03-01T10:40:06;101867.31;;;3.16;39.14
43621;BME280;29213;50.770;7.298;2023-03-01T10:42:39;101853.63;;;3.26;39.08
43621;BME280;29213;50.770;7.298;2023-03-01T10:45:30;101856.84;;;3.47;39.14
43621;BME280;29213;50.770;7.298;2023-03-01T10:50:34;101800.16;;;4.17;39.59
43621;BME280;29213;50.770;7.298;2023-03-01T10:53:04;101828.47;;;4.44;39.01
43621;BME280;29213;50.770;7.298;2023-03-01T10:55:36;101824.59;;;4.50;37.73
43621;BME280;29213;50.770;7.298;2023-03-01T11:00:49;101813.63;;;4.72;37.04
43621;BME280;29213;50.770;7.298;2023-03-01T11:03:17;101807.44;;;5.01;37.27
43621;BME280;29213;50.770;7.298;2023-03-01T11:08:44;101746.75;;;4.86;34.85
43621;BME280;29213;50.770;7.298;2023-03-01T11:11:29;101797.00;;;5.54;36.56
43621;BME280;29213;50.770;7.298;2023-03-01T11:14:06;101788.38;;;5.65;35.12
43621;BME280;29213;50.770;7.298;2023-03-01T11:16:37;101746.59;;;5.57;33.64
43621;BME280;29213;50.770;7.298;2023-03-01T11:21:47;101750.09;;;5.71;33.95
43621;BME280;29213;50.770;7.298;2023-03-01T11:24:18;101754.06;;;5.91;33.92
43621;BME280;29213;50.770;7.298;2023-03-01T11:26:54;101733.63;;;5.80;33.84
43621;BME280;29213;50.770;7.298;2023-03-01T11:29:39;101773.84;;;6.11;33.53
43621;BME280;29213;50.770;7.298;2023-03-01T11:32:08;101753.44;;;6.13;33.98
43621;BME280;29213;50.770;7.298;2023-03-01T11:35:03;101722.53;;;6.01;33.23
43621;BME280;29213;50.770;7.298;2023-03-01T11:37:39;101708.56;;;6.25;33.57
43621;BME280;29213;50.770;7.298;2023-03-01T11:40:23;101721.44;;;6.68;33.69
43621;BME280;29213;50.770;7.298;2023-03-01T11:48:31;101758.13;;;7.59;32.59
43621;BME280;29213;50.770;7.298;2023-03-01T11:51:02;101698.41;;;7.42;31.94
43621;BME280;29213;50.770;7.298;2023-03-01T11:56:26;101662.88;;;7.45;31.87
43621;BME280;29213;50.770;7.298;2023-03-01T12:01:54;101727.41;;;8.04;31.94
43621;BME280;29213;50.770;7.298;2023-03-01T12:04:52;101717.94;;;7.88;31.37
43621;BME280;29213;50.770;7.298;2023-03-01T12:12:36;101713.78;;;8.20;31.46
43621;BME280;29213;50.770;7.298;2023-03-01T12:15:45;101710.25;;;8.31;30.41
43621;BME280;29213;50.770;7.298;2023-03-01T12:21:02;101631.22;;;7.89;30.70
43621;BME280;29213;50.770;7.298;2023-03-01T12:26:35;101681.66;;;8.23;29.64
43621;BME280;29213;50.770;7.298;2023-03-01T12:29:15;101648.00;;;7.89;30.15
43621;BME280;29213;50.770;7.298;2023-03-01T12:31:58;101665.91;;;8.10;30.13
43621;BME280;29213;50.770;7.298;2023-03-01T12:34:37;101667.81;;;8.20;29.86
43621;BME280;29213;50.770;7.298;2023-03-01T12:43:28;101663.88;;;8.69;30.87
43621;BME280;29213;50.770;7.298;2023-03-01T12:51:24;101658.38;;;9.15;27.80
43621;BME280;29213;50.770;7.298;2023-03-01T12:53:51;101654.50;;;9.41;27.74
43621;BME280;29213;50.770;7.298;2023-03-01T12:56:21;101613.78;;;9.40;27.41
43621;BME280;29213;50.770;7.298;2023-03-01T12:59:03;101625.28;;;9.62;26.88
43621;BME280;29213;50.770;7.298;2023-03-01T13:07:14;101631.19;;;10.67;26.68
43621;BME280;29213;50.770;7.298;2023-03-01T13:10:01;101621.44;;;11.07;26.62
43621;BME280;29213;50.770;7.298;2023-03-01T13:17:48;101618.22;;;11.61;24.64
43621;BME280;29213;50.770;7.298;2023-03-01T13:20:16;101594.81;;;11.83;24.20
43621;BME280;29213;50.770;7.298;2023-03-01T13:22:42;101548.25;;;11.68;25.61
43621;BME280;29213;50.770;7.298;2023-03-01T13:25:19;101476.38;;;11.38;24.00
43621;BME280;29213;50.770;7.298;2023-03-01T13:27:46;101566.81;;;11.97;24.10
43621;BME280;29213;50.770;7.298;2023-03-01T13:30:38;101620.38;;;12.24;24.20
43621;BME280;29213;50.770;7.298;2023-03-01T13:35:48;101608.19;;;12.11;23.67
43621;BME280;29213;50.770;7.298;2023-03-01T13:38:36;101604.03;;;12.27;23.17
43621;BME280;29213;50.770;7.298;2023-03-01T13:41:03;101600.16;;;12.39;23.48
43621;BME280;29213;50.770;7.298;2023-03-01T13:43:33;101596.03;;;12.81;23.28
43621;BME280;29213;50.770;7.298;2023-03-01T13:46:00;101461.41;;;12.01;23.04
43621;BME280;29213;50.770;7.298;2023-03-01T13:48:29;101587.25;;;12.71;23.11
43621;BME280;29213;50.770;7.298;2023-03-01T13:51:09;101594.06;;;12.65;22.92
43621;BME280;29213;50.770;7.298;2023-03-01T13:53:39;101526.81;;;12.52;22.60
43621;BME280;29213;50.770;7.298;2023-03-01T13:58:57;101592.56;;;13.52;21.84
43621;BME280;29213;50.770;7.298;2023-03-01T14:01:31;101580.91;;;13.70;21.58
43621;BME280;29213;50.770;7.298;2023-03-01T14:03:57;101582.31;;;13.82;21.36
43621;BME280;29213;50.770;7.298;2023-03-01T14:06:25;101574.66;;;13.53;21.66
43621;BME280;29213;50.770;7.298;2023-03-01T14:09:02;101553.72;;;13.48;21.96
43621;BME280;29213;50.770;7.298;2023-03-01T14:19:59;101513.38;;;12.88;19.74
43621;BME280;29213;50.770;7.298;2023-03-01T14:22:35;101498.88;;;12.46;21.58
43621;BME280;29213;50.770;7.298;2023-03-01T14:25:19;101554.22;;;12.54;22.13
43621;BME280;29213;50.770;7.298;2023-03-01T14:27:51;101515.28;;;12.15;24.15
43621;BME280;29213;50.770;7.298;2023-03-01T14:30:22;101538.94;;;12.28;22.04
43621;BME280;29213;50.770;7.298;2023-03-01T14:32:57;101512.53;;;11.79;22.23
43621;BME280;29213;50.770;7.298;2023-03-01T14:35:28;101528.00;;;12.03;21.43
43621;BME280;29213;50.770;7.298;2023-03-01T14:37:54;101523.06;;;12.08;21.58
43621;BME280;29213;50.770;7.298;2023-03-01T14:40:23;101526.09;;;11.95;22.23
43621;BME280;29213;50.770;7.298;2023-03-01T14:42:49;101498.84;;;11.92;22.44